Terminal Aerodrome Forecast
Issued by NWS

Current Version | Previous Version | Text Only | Print | Product List | Glossary Off
Versions: 1 2 3 4 5 6 7 8 9 10 11 12 13 14 15 16

000
FTUS41 KPBZ 201424 AAA
TAFHLG
TAF AMD
KHLG 201424Z 2014/2112 29007KT P6SM FEW020 BKN040
     FM201900 30007KT P6SM SCT050
     FM210000 34005KT P6SM SCT120
     FM210600 VRB03KT 5SM BR BKN110=

USA.gov is the U.S. government's official web portal to all federal, state and local government web resources and services.